E.r.bristol — A8XQ6 — position and weather

sailwx.info

Track history (hours):
 
Tides and Currents Weather Stations Pressure Air Temp Water Temp Dewpoint Dewpoint Depression Visibility Wind Speed Wind Dir Waves Ship Positions

E.r.bristol

Last reported at 2015-Sep-03 04:33 UTC. Time now 2015-Sep-05 01:09 UTC.
Position N 36°20' W 003°09'.

Length 188 m; draft 9.3 m.

Type: Cargo ship. MMSI: 636092151.

Date/timePositionNaut miles runAvg speedWind from/ knotsBaromVisibWave heightAir tempDewpointWater temp
2015-Sep-03 04:33N 36°20' W 003°09'1313.3
2015-Sep-03 03:34N 36°21' W 002°53'1313.5
2015-Sep-03 02:34N 36°23' W 002°36'1413.2
2015-Sep-03 01:31N 36°25' W 002°19'1312.9
2015-Sep-03 00:30N 36°30' W 002°04'1313.8
2015-Sep-02 23:32N 36°39' W 001°52'4513.9
2015-Sep-02 20:17N 37°09' W 001°10'1014.1
2015-Sep-02 19:33N 37°16' W 000°60'1514.6
2015-Sep-02 18:33N 37°25' W 000°46'1514.8
2015-Sep-02 17:34N 37°35' W 000°32'1514.6
2015-Sep-02 16:33N 37°48' W 000°22'1514.6
2015-Sep-02 15:32N 38°00' W 000°12'134 9.6
2015-Sep-02 01:33N 39°56' E 001°14'1414.1
2015-Sep-02 00:33N 40°09' E 001°23'1414.4
2015-Sep-01 23:33N 40°22' E 001°32'1514.7
2015-Sep-01 22:33N 40°35' E 001°41'1514.9
2015-Sep-01 21:33N 40°48' E 001°50'1514.7
2015-Sep-01 20:33N 41°01' E 001°59'1513.8
2015-Sep-01 19:30N 41°13' E 002°08'8 8.3
2015-Sep-01 18:32N 41°21' E 002°10'0 0.3
2015-Sep-01 17:05N 41°22' E 002°10'0 0.0
2015-Sep-01 16:23N 41°22' E 002°10'0 0.0
2015-Sep-01 14:29N 41°22' E 002°10'0 0.0
2015-Sep-01 13:22N 41°22' E 002°10'0 0.0
2015-Sep-01 12:32N 41°22' E 002°10'0 0.0
2015-Sep-01 11:29N 41°22' E 002°10'0 0.0
2015-Sep-01 00:04N 41°22' E 002°10'0 0.0
2015-Aug-31 22:04N 41°22' E 002°10'0 0.0
2015-Aug-31 21:16N 41°22' E 002°10'0 0.0
2015-Aug-31 20:31N 41°22' E 002°10'0 0.0
2015-Aug-31 18:04N 41°22' E 002°10'0 0.0
2015-Aug-31 17:16N 41°22' E 002°10'0 0.0
2015-Aug-31 15:22N 41°22' E 002°10'0 0.0
2015-Aug-30 19:28N 41°22' E 002°10'0 0.0
2015-Aug-30 18:16N 41°22' E 002°10'0 0.0
2015-Aug-30 17:22N 41°22' E 002°10'0 0.0
2015-Aug-30 15:22N 41°22' E 002°10'0 0.0
2015-Aug-30 14:28N 41°22' E 002°11'0 0.0
2015-Aug-30 13:28N 41°22' E 002°10'0 0.0
2015-Aug-30 09:22N 41°22' E 002°10'0 0.0
2015-Aug-30 04:22N 41°22' E 002°10'3 3.2
2015-Aug-30 03:30N 41°19' E 002°10'13 9.2
2015-Aug-30 02:05N 41°11' E 002°24'713.6
2015-Aug-30 01:33N 41°07' E 002°33'1514.8
2015-Aug-30 00:33N 40°60' E 002°49'1515.0
2015-Aug-29 23:33N 40°52' E 003°06'1515.0
2015-Aug-29 22:33N 40°44' E 003°23'2014.9
2015-Aug-29 21:11N 40°34' E 003°46'5414.9
2015-Aug-29 17:33N 40°06' E 004°47'1615.0
2015-Aug-29 16:30N 39°58' E 005°05'18014.7
2015-Aug-29 04:18N 38°26' E 008°24'4014.5
2015-Aug-29 01:33N 38°05' E 009°07'1814.7
2015-Aug-29 00:21N 37°56' E 009°27'6914.2
2015-Aug-28 19:31N 37°33' E 010°48'7614.8
2015-Aug-28 14:22N 37°01' E 012°15'3114.2
2015-Aug-28 12:12N 36°51' E 012°52'1013.8
2015-Aug-28 11:27N 36°47' E 013°04'1313.9
2015-Aug-28 10:32N 36°43' E 013°19'1514.5
2015-Aug-28 09:30N 36°37' E 013°36'1514.5
2015-Aug-28 08:29N 36°32' E 013°53'1414.6
2015-Aug-28 07:33N 36°27' E 014°09'1514.4
2015-Aug-28 06:33N 36°22' E 014°26'1414.2
2015-Aug-28 05:33N 36°20' E 014°43'1414.4
2015-Aug-28 04:33N 36°19' E 015°01'7314.2
2015-Aug-27 23:23N 36°16' E 016°32'39014.4
2015-Aug-26 20:17N 36°06' E 024°34'1013.9
2015-Aug-26 19:33N 36°07' E 024°47'1413.7
2015-Aug-26 18:33N 36°07' E 025°04'1414.0
2015-Aug-26 17:34N 36°08' E 025°21'1514.5
2015-Aug-26 16:33N 36°09' E 025°39'1514.7
2015-Aug-26 15:33N 36°10' E 025°58'1614.7
2015-Aug-26 14:25N 36°11' E 026°18'1214.1
2015-Aug-26 13:33N 36°10' E 026°33'1514.4
2015-Aug-26 12:30N 36°07' E 026°52'1914.2
2015-Aug-26 11:11N 36°02' E 027°14'913.8
2015-Aug-26 10:32N 35°57' E 027°23'1414.4
2015-Aug-26 09:33N 35°48' E 027°37'1714.3
2015-Aug-26 08:20N 35°44' E 027°57'1215.2
2015-Aug-26 07:32N 35°44' E 028°12'  
Track history (hours):
 
Tides and Currents Weather Stations Pressure Air Temp Water Temp Dewpoint Dewpoint Depression Visibility Wind Speed Wind Dir Waves Ship Positions

E.r.bristol

Last reported at 2015-Sep-03 04:33 UTC. Time now 2015-Sep-05 01:09 UTC.
Position N 36°20' W 003°09'.

Length 188 m; draft 9.3 m.

Type: Cargo ship. MMSI: 636092151.

Date/timePositionNaut miles runAvg speedWind from/ knotsBaromVisibWave heightAir tempDewpointWater temp
2015-Sep-03 04:33N 36°20' W 003°09'1313.3
2015-Sep-03 03:34N 36°21' W 002°53'1313.5
2015-Sep-03 02:34N 36°23' W 002°36'1413.2
2015-Sep-03 01:31N 36°25' W 002°19'1312.9
2015-Sep-03 00:30N 36°30' W 002°04'1313.8
2015-Sep-02 23:32N 36°39' W 001°52'4513.9
2015-Sep-02 20:17N 37°09' W 001°10'1014.1
2015-Sep-02 19:33N 37°16' W 000°60'1514.6
2015-Sep-02 18:33N 37°25' W 000°46'1514.8
2015-Sep-02 17:34N 37°35' W 000°32'1514.6
2015-Sep-02 16:33N 37°48' W 000°22'1514.6
2015-Sep-02 15:32N 38°00' W 000°12'134 9.6
2015-Sep-02 01:33N 39°56' E 001°14'1414.1
2015-Sep-02 00:33N 40°09' E 001°23'1414.4
2015-Sep-01 23:33N 40°22' E 001°32'1514.7
2015-Sep-01 22:33N 40°35' E 001°41'1514.9
2015-Sep-01 21:33N 40°48' E 001°50'1514.7
2015-Sep-01 20:33N 41°01' E 001°59'1513.8
2015-Sep-01 19:30N 41°13' E 002°08'8 8.3
2015-Sep-01 18:32N 41°21' E 002°10'0 0.3
2015-Sep-01 17:05N 41°22' E 002°10'0 0.0
2015-Sep-01 16:23N 41°22' E 002°10'0 0.0
2015-Sep-01 14:29N 41°22' E 002°10'0 0.0
2015-Sep-01 13:22N 41°22' E 002°10'0 0.0
2015-Sep-01 12:32N 41°22' E 002°10'0 0.0
2015-Sep-01 11:29N 41°22' E 002°10'0 0.0
2015-Sep-01 00:04N 41°22' E 002°10'0 0.0
2015-Aug-31 22:04N 41°22' E 002°10'0 0.0
2015-Aug-31 21:16N 41°22' E 002°10'0 0.0
2015-Aug-31 20:31N 41°22' E 002°10'0 0.0
2015-Aug-31 18:04N 41°22' E 002°10'0 0.0
2015-Aug-31 17:16N 41°22' E 002°10'0 0.0
2015-Aug-31 15:22N 41°22' E 002°10'0 0.0
2015-Aug-30 19:28N 41°22' E 002°10'0 0.0
2015-Aug-30 18:16N 41°22' E 002°10'0 0.0
2015-Aug-30 17:22N 41°22' E 002°10'0 0.0
2015-Aug-30 15:22N 41°22' E 002°10'0 0.0
2015-Aug-30 14:28N 41°22' E 002°11'0 0.0
2015-Aug-30 13:28N 41°22' E 002°10'0 0.0
2015-Aug-30 09:22N 41°22' E 002°10'0 0.0
2015-Aug-30 04:22N 41°22' E 002°10'3 3.2
2015-Aug-30 03:30N 41°19' E 002°10'13 9.2
2015-Aug-30 02:05N 41°11' E 002°24'713.6
2015-Aug-30 01:33N 41°07' E 002°33'1514.8
2015-Aug-30 00:33N 40°60' E 002°49'1515.0
2015-Aug-29 23:33N 40°52' E 003°06'1515.0
2015-Aug-29 22:33N 40°44' E 003°23'2014.9
2015-Aug-29 21:11N 40°34' E 003°46'5414.9
2015-Aug-29 17:33N 40°06' E 004°47'1615.0
2015-Aug-29 16:30N 39°58' E 005°05'18014.7
2015-Aug-29 04:18N 38°26' E 008°24'4014.5
2015-Aug-29 01:33N 38°05' E 009°07'1814.7
2015-Aug-29 00:21N 37°56' E 009°27'6914.2
2015-Aug-28 19:31N 37°33' E 010°48'7614.8
2015-Aug-28 14:22N 37°01' E 012°15'3114.2
2015-Aug-28 12:12N 36°51' E 012°52'1013.8
2015-Aug-28 11:27N 36°47' E 013°04'1313.9
2015-Aug-28 10:32N 36°43' E 013°19'1514.5
2015-Aug-28 09:30N 36°37' E 013°36'1514.5
2015-Aug-28 08:29N 36°32' E 013°53'1414.6
2015-Aug-28 07:33N 36°27' E 014°09'1514.4
2015-Aug-28 06:33N 36°22' E 014°26'1414.2
2015-Aug-28 05:33N 36°20' E 014°43'1414.4
2015-Aug-28 04:33N 36°19' E 015°01'7314.2
2015-Aug-27 23:23N 36°16' E 016°32'39014.4
2015-Aug-26 20:17N 36°06' E 024°34'1013.9
2015-Aug-26 19:33N 36°07' E 024°47'1413.7
2015-Aug-26 18:33N 36°07' E 025°04'1414.0
2015-Aug-26 17:34N 36°08' E 025°21'1514.5
2015-Aug-26 16:33N 36°09' E 025°39'1514.7
2015-Aug-26 15:33N 36°10' E 025°58'1614.7
2015-Aug-26 14:25N 36°11' E 026°18'1214.1
2015-Aug-26 13:33N 36°10' E 026°33'1514.4
2015-Aug-26 12:30N 36°07' E 026°52'1914.2
2015-Aug-26 11:11N 36°02' E 027°14'913.8
2015-Aug-26 10:32N 35°57' E 027°23'1414.4
2015-Aug-26 09:33N 35°48' E 027°37'1714.3
2015-Aug-26 08:20N 35°44' E 027°57'1215.2
2015-Aug-26 07:32N 35°44' E 028°12'  

Dump ship's entire track history